createdAt,value
2023-06-05T00:02:13.600Z,98827.38
2023-06-05T00:04:41.688Z,98829.16
2023-06-05T00:07:08.521Z,98832.06
2023-06-05T00:09:35.600Z,98832.69
2023-06-05T00:12:02.871Z,98828.16
2023-06-05T00:14:29.707Z,98835.25
2023-06-05T00:16:58.273Z,98845.16
2023-06-05T00:19:25.266Z,98836.28
2023-06-05T00:21:53.777Z,98844.53
2023-06-05T00:24:20.862Z,98838.78
2023-06-05T00:26:48.366Z,98839.91
2023-06-05T00:29:16.161Z,98837.66
2023-06-05T00:31:47.240Z,98839.91
2023-06-05T00:34:15.090Z,98833.47
2023-06-05T00:36:41.986Z,98838.63
2023-06-05T00:39:09.866Z,98832.41
2023-06-05T00:41:42.732Z,98827.94
2023-06-05T00:44:09.754Z,98833.06
2023-06-05T00:46:36.638Z,98833.19
2023-06-05T00:49:03.549Z,98829.69
2023-06-05T00:51:30.975Z,98825.94
2023-06-05T00:53:58.560Z,98830.78
2023-06-05T00:56:25.648Z,98835.09
2023-06-05T00:58:55.839Z,98833.03
2023-06-05T01:01:25.169Z,98833.41
2023-06-05T01:03:53.651Z,98823.97
2023-06-05T01:06:20.816Z,98830.19
2023-06-05T01:08:49.341Z,98829.41
2023-06-05T01:11:44.270Z,98829.06
2023-06-05T01:14:28.709Z,98835.50
2023-06-05T01:16:57.912Z,98828.94
2023-06-05T01:19:26.043Z,98829.25
2023-06-05T01:21:53.484Z,98827.97
2023-06-05T01:24:23.555Z,98816.44
2023-06-05T01:27:01.968Z,98832.94
2023-06-05T01:29:54.152Z,98825.56
2023-06-05T01:32:48.288Z,98821.84
2023-06-05T01:35:18.164Z,98827.78
2023-06-05T01:37:49.856Z,98822.16
2023-06-05T01:40:25.594Z,98824.28
2023-06-05T01:42:56.404Z,98828.47
2023-06-05T01:45:24.159Z,98823.47
2023-06-05T01:47:55.851Z,98820.72
2023-06-05T01:50:23.047Z,98822.19
2023-06-05T01:52:50.419Z,98819.63
2023-06-05T01:55:27.882Z,98817.69
2023-06-05T01:57:55.056Z,98825.72
2023-06-05T02:00:22.192Z,98831.50
2023-06-05T02:02:51.107Z,98825.22
2023-06-05T02:05:20.967Z,98819.28
2023-06-05T02:07:54.388Z,98817.19
2023-06-05T02:10:21.975Z,98819.63
2023-06-05T02:12:48.893Z,98814.28
2023-06-05T02:15:16.462Z,98819.69
2023-06-05T02:17:54.748Z,98828.97
2023-06-05T02:20:26.470Z,98828.03
2023-06-05T02:22:53.656Z,98830.56
2023-06-05T02:25:22.103Z,98828.53
2023-06-05T02:27:49.016Z,98830.38
2023-06-05T02:30:16.277Z,98826.84
2023-06-05T02:32:44.825Z,98826.84
2023-06-05T02:35:13.508Z,98818.19
2023-06-05T02:37:45.523Z,98823.44
2023-06-05T02:40:14.305Z,98822.59
2023-06-05T02:42:42.294Z,98825.81
2023-06-05T02:45:10.569Z,98828.38
2023-06-05T02:47:38.123Z,98822.81
2023-06-05T02:50:08.386Z,98822.03
2023-06-05T02:52:36.504Z,98827.75
2023-06-05T02:55:04.773Z,98820.72
2023-06-05T02:57:32.100Z,98816.22
2023-06-05T02:59:58.873Z,98816.22
2023-06-05T03:02:28.355Z,98814.53
2023-06-05T03:04:56.618Z,98811.66
2023-06-05T03:07:23.914Z,98811.31
2023-06-05T03:09:50.834Z,98816.22
2023-06-05T03:12:17.708Z,98817.69
2023-06-05T03:14:44.553Z,98813.41
2023-06-05T03:17:11.542Z,98820.56
2023-06-05T03:19:38.394Z,98810.59
2023-06-05T03:22:06.204Z,98823.78
2023-06-05T03:24:33.065Z,98816.56
2023-06-05T03:27:00.158Z,98816.28
2023-06-05T03:29:27.441Z,98816.78
2023-06-05T03:31:54.235Z,98816.16
2023-06-05T03:34:23.677Z,98824.44
2023-06-05T03:36:52.338Z,98823.97
2023-06-05T03:39:19.382Z,98817.50
2023-06-05T03:41:46.177Z,98818.81
2023-06-05T03:44:13.225Z,98824.53
2023-06-05T03:46:40.060Z,98824.34
2023-06-05T03:49:09.962Z,98827.34
2023-06-05T03:51:37.233Z,98830.34
2023-06-05T03:54:04.653Z,98829.75
2023-06-05T03:56:35.446Z,98827.03
2023-06-05T03:59:09.966Z,98827.97
2023-06-05T04:01:40.062Z,98834.38
2023-06-05T04:04:08.293Z,98833.75
2023-06-05T04:06:35.793Z,98838.16
2023-06-05T04:09:03.374Z,98846.59
2023-06-05T04:11:31.809Z,98840.66
2023-06-05T04:13:58.586Z,98835.84
2023-06-05T04:16:26.115Z,98840.16
2023-06-05T04:18:52.892Z,98845.47
2023-06-05T04:21:19.730Z,98842.41
2023-06-05T04:23:46.686Z,98843.53
2023-06-05T04:26:14.763Z,98842.19
2023-06-05T04:28:43.217Z,98840.28
2023-06-05T04:31:10.879Z,98839.22
2023-06-05T04:33:38.116Z,98841.50
2023-06-05T04:36:06.459Z,98851.91
2023-06-05T04:38:33.419Z,98845.81
2023-06-05T04:41:00.229Z,98847.28
2023-06-05T04:43:27.140Z,98847.94
2023-06-05T04:45:55.130Z,98839.47
2023-06-05T04:48:22.032Z,98839.97
2023-06-05T04:50:49.523Z,98839.59
2023-06-05T04:53:18.229Z,98839.28
2023-06-05T04:55:46.629Z,98836.75
2023-06-05T04:58:13.579Z,98844.16
2023-06-05T05:00:40.760Z,98840.59
2023-06-05T05:03:07.782Z,98836.63
2023-06-05T05:05:37.441Z,98842.25
2023-06-05T05:08:05.920Z,98841.97
2023-06-05T05:10:33.436Z,98834.13
2023-06-05T05:13:03.145Z,98833.38
2023-06-05T05:15:30.279Z,98840.59
2023-06-05T05:17:57.889Z,98838.34
2023-06-05T05:20:24.915Z,98839.78
2023-06-05T05:22:53.573Z,98847.16
2023-06-05T05:25:20.575Z,98849.09
2023-06-05T05:27:47.408Z,98846.88
2023-06-05T05:30:14.753Z,98846.88
2023-06-05T05:32:41.842Z,98838.06
2023-06-05T05:35:09.367Z,98840.94
2023-06-05T05:37:36.236Z,98840.63
2023-06-05T05:40:04.834Z,98831.97
2023-06-05T05:42:31.730Z,98838.06
2023-06-05T05:44:58.492Z,98835.78
2023-06-05T05:47:25.349Z,98842.03
2023-06-05T05:49:52.192Z,98849.09
2023-06-05T05:52:21.467Z,98843.47
2023-06-05T05:54:48.370Z,98851.16
2023-06-05T05:57:15.505Z,98844.09
2023-06-05T05:59:45.343Z,98844.06
2023-06-05T06:02:13.528Z,98851.09
2023-06-05T06:04:41.684Z,98847.38
2023-06-05T06:07:09.529Z,98850.88
2023-06-05T06:09:36.659Z,98848.91
2023-06-05T06:12:06.850Z,98848.53
2023-06-05T06:14:34.785Z,98845.63
2023-06-05T06:17:03.110Z,98844.16
2023-06-05T06:19:30.047Z,98841.06
2023-06-05T06:21:56.970Z,98842.72
2023-06-05T06:24:24.831Z,98832.66
2023-06-05T06:26:53.378Z,98829.66
2023-06-05T06:29:22.048Z,98836.03
2023-06-05T06:31:48.879Z,98832.53
2023-06-05T06:34:15.706Z,98838.22
2023-06-05T06:36:45.282Z,98830.72
2023-06-05T06:39:13.852Z,98833.81
2023-06-05T06:41:40.838Z,98827.59
2023-06-05T06:44:07.785Z,98829.19
2023-06-05T06:46:34.652Z,98832.78
2023-06-05T06:49:01.664Z,98834.06
2023-06-05T06:51:28.780Z,98830.84
2023-06-05T06:53:55.931Z,98834.97
2023-06-05T06:56:22.746Z,98829.06
2023-06-05T06:58:49.834Z,98835.44
2023-06-05T07:01:16.751Z,98819.41
2023-06-05T07:03:44.850Z,98824.19
2023-06-05T07:06:13.011Z,98829.28
2023-06-05T07:08:40.154Z,98828.00
2023-06-05T07:11:08.107Z,98832.44
2023-06-05T07:13:35.138Z,98831.31
2023-06-05T07:16:02.018Z,98834.09
2023-06-05T07:18:29.815Z,98820.41
2023-06-05T07:20:56.692Z,98834.94
2023-06-05T07:23:24.668Z,98830.97
2023-06-05T07:25:52.597Z,98827.78
2023-06-05T07:28:19.646Z,98832.50
2023-06-05T07:30:46.570Z,98834.75
2023-06-05T07:33:28.529Z,98822.03
2023-06-05T07:35:56.569Z,98840.03
2023-06-05T07:38:23.451Z,98839.91
2023-06-05T07:40:50.313Z,98833.09
2023-06-05T07:43:18.901Z,98838.88
2023-06-05T07:45:45.928Z,98833.22
2023-06-05T07:48:12.836Z,98833.44
2023-06-05T07:50:39.708Z,98827.78
2023-06-05T07:53:06.522Z,98825.28
2023-06-05T07:55:33.405Z,98834.31
2023-06-05T07:58:00.720Z,98828.25
2023-06-05T08:00:31.053Z,98830.47
2023-06-05T08:02:58.525Z,98825.94
2023-06-05T08:05:25.536Z,98831.25
2023-06-05T08:07:52.449Z,98827.91
2023-06-05T08:10:19.291Z,98830.13
2023-06-05T08:12:46.256Z,98828.78
2023-06-05T08:15:13.322Z,98836.75
2023-06-05T08:17:40.198Z,98828.28
2023-06-05T08:20:10.051Z,98828.13
2023-06-05T08:22:37.806Z,98831.88
2023-06-05T08:25:05.552Z,98840.69
2023-06-05T08:27:32.387Z,98834.50
2023-06-05T08:30:00.732Z,98831.84
2023-06-05T08:32:27.583Z,98830.75
2023-06-05T08:34:54.651Z,98830.50
2023-06-05T08:37:21.546Z,98823.09
2023-06-05T08:39:49.626Z,98833.09
2023-06-05T08:42:19.466Z,98827.31
2023-06-05T08:45:01.801Z,98827.00
2023-06-05T08:47:31.732Z,98821.13
2023-06-05T08:50:04.230Z,98820.78
2023-06-05T08:52:38.295Z,98820.13
2023-06-05T08:55:06.856Z,98822.97
2023-06-05T08:57:37.528Z,98822.22
2023-06-05T09:00:08.865Z,98823.03
2023-06-05T09:02:38.111Z,98818.69
2023-06-05T09:05:05.933Z,98817.53
2023-06-05T09:07:33.951Z,98812.81
2023-06-05T09:10:01.057Z,98805.69
2023-06-05T09:12:28.054Z,98816.81
2023-06-05T09:14:57.011Z,98817.63
2023-06-05T09:17:26.270Z,98812.91
2023-06-05T09:19:53.515Z,98812.91
2023-06-05T09:22:35.613Z,98815.66
2023-06-05T09:25:03.285Z,98816.06
2023-06-05T09:27:30.216Z,98810.06
2023-06-05T09:30:06.006Z,98804.94
2023-06-05T09:32:32.975Z,98808.06
2023-06-05T09:35:02.257Z,98809.59
2023-06-05T09:37:37.596Z,98791.25
2023-06-05T09:40:09.879Z,98803.13
2023-06-05T09:42:36.804Z,98797.59
2023-06-05T09:45:05.576Z,98793.59
2023-06-05T09:47:42.184Z,98793.16
2023-06-05T09:50:28.212Z,98796.59
2023-06-05T09:52:59.643Z,98795.66
2023-06-05T09:55:27.172Z,98783.91
2023-06-05T09:58:00.798Z,98790.00
2023-06-05T10:00:29.271Z,98785.91
2023-06-05T10:02:59.239Z,98788.75
2023-06-05T10:05:27.640Z,98779.28
2023-06-05T10:07:55.565Z,98783.13
2023-06-05T10:10:23.654Z,98785.47
2023-06-05T10:12:51.086Z,98789.72
2023-06-05T10:15:18.981Z,98778.44
2023-06-05T10:17:49.586Z,98788.16
2023-06-05T10:20:17.366Z,98787.53
2023-06-05T10:22:48.003Z,98779.38
2023-06-05T10:25:17.389Z,98784.25
2023-06-05T10:27:57.785Z,98777.94
2023-06-05T10:31:06.478Z,98780.09
2023-06-05T10:34:24.391Z,98781.59
2023-06-05T10:37:56.994Z,98792.63
2023-06-05T10:40:26.387Z,98776.63
2023-06-05T10:42:53.349Z,98770.25
2023-06-05T10:45:33.314Z,98779.28
2023-06-05T10:48:02.855Z,98787.25
2023-06-05T10:50:32.618Z,98785.13
2023-06-05T10:52:59.697Z,98781.63
2023-06-05T10:55:41.651Z,98784.88
2023-06-05T10:58:14.600Z,98775.41
2023-06-05T11:01:23.707Z,98779.03
2023-06-05T11:04:01.366Z,98768.41
2023-06-05T11:06:28.926Z,98764.91
2023-06-05T11:09:16.371Z,98765.94
2023-06-05T11:12:00.804Z,98758.06
2023-06-05T11:14:48.952Z,98760.81
2023-06-05T11:17:44.771Z,98759.00
2023-06-05T11:20:29.946Z,98745.41
2023-06-05T11:23:00.413Z,98762.53
2023-06-05T11:25:29.725Z,98757.19
2023-06-05T11:28:09.133Z,98762.13
2023-06-05T11:30:49.513Z,98761.56
2023-06-05T11:33:20.230Z,98758.91
2023-06-05T11:35:50.171Z,98741.75
2023-06-05T11:38:23.033Z,98739.59
2023-06-05T11:40:51.643Z,98747.13
2023-06-05T11:43:18.816Z,98740.72
2023-06-05T11:45:54.365Z,98732.06
2023-06-05T11:48:22.014Z,98744.56
2023-06-05T11:51:07.075Z,98738.31
2023-06-05T11:53:34.895Z,98744.03
2023-06-05T11:56:04.588Z,98743.59
2023-06-05T11:58:37.168Z,98743.72
2023-06-05T12:01:18.929Z,98755.63
2023-06-05T12:03:48.153Z,98748.97
2023-06-05T12:06:18.593Z,98742.69
2023-06-05T12:08:49.512Z,98737.66
2023-06-05T12:11:22.565Z,98736.09
2023-06-05T12:13:54.343Z,98733.47
2023-06-05T12:16:33.902Z,98722.56
2023-06-05T12:19:14.603Z,98718.19
2023-06-05T12:21:48.304Z,98732.56
2023-06-05T12:24:16.178Z,98724.31
2023-06-05T12:26:56.516Z,98733.13
2023-06-05T12:29:30.732Z,98724.34
2023-06-05T12:31:59.754Z,98719.66
2023-06-05T12:34:59.188Z,98713.47
2023-06-05T12:37:38.413Z,98715.97
2023-06-05T12:40:11.842Z,98719.47
2023-06-05T12:42:41.890Z,98708.84
2023-06-05T12:45:10.994Z,98709.47
2023-06-05T12:47:39.053Z,98702.69
2023-06-05T12:50:08.476Z,98703.66
2023-06-05T12:52:35.529Z,98701.56
2023-06-05T12:55:04.142Z,98699.88
2023-06-05T12:57:32.959Z,98707.75
2023-06-05T12:59:59.827Z,98696.91
2023-06-05T13:02:27.006Z,98702.53
2023-06-05T13:04:53.947Z,98698.66
2023-06-05T13:07:22.738Z,98699.50
2023-06-05T13:09:51.396Z,98682.44
2023-06-05T13:12:18.206Z,98693.31
2023-06-05T13:14:45.043Z,98693.84
2023-06-05T13:17:12.033Z,98689.69
2023-06-05T13:19:39.214Z,98691.72
2023-06-05T13:22:07.048Z,98684.84
2023-06-05T13:24:33.925Z,98682.19
2023-06-05T13:27:00.943Z,98682.59
2023-06-05T13:29:27.924Z,98681.06
2023-06-05T13:31:54.826Z,98677.97
2023-06-05T13:34:21.758Z,98678.81
2023-06-05T13:36:48.715Z,98678.16
2023-06-05T13:39:17.676Z,98674.38
2023-06-05T13:41:44.599Z,98674.84
2023-06-05T13:44:11.451Z,98666.63
2023-06-05T13:46:38.430Z,98671.69
2023-06-05T13:49:05.276Z,98660.91
2023-06-05T13:51:32.088Z,98669.22
2023-06-05T13:53:58.950Z,98658.88
2023-06-05T13:56:26.573Z,98654.13
2023-06-05T13:58:53.727Z,98653.97
2023-06-05T14:01:20.958Z,98648.34
2023-06-05T14:03:49.080Z,98650.09
2023-06-05T14:06:18.924Z,98655.97
2023-06-05T14:08:46.577Z,98653.44
2023-06-05T14:11:14.115Z,98647.31
2023-06-05T14:13:42.325Z,98649.66
2023-06-05T14:16:13.775Z,98649.44
2023-06-05T14:18:40.941Z,98650.06
2023-06-05T14:21:07.983Z,98647.19
2023-06-05T14:23:35.297Z,98643.41
2023-06-05T14:26:02.237Z,98645.31
2023-06-05T14:28:29.522Z,98643.69
2023-06-05T14:30:56.548Z,98636.81
2023-06-05T14:33:23.409Z,98630.19
2023-06-05T14:35:50.458Z,98638.94
2023-06-05T14:38:17.324Z,98634.50
2023-06-05T14:40:44.250Z,98634.50
2023-06-05T14:43:11.096Z,98638.13
2023-06-05T14:45:37.978Z,98630.28
2023-06-05T14:48:05.085Z,98636.97
2023-06-05T14:50:32.035Z,98636.56
2023-06-05T14:52:58.880Z,98635.47
2023-06-05T14:55:25.764Z,98637.50
2023-06-05T14:57:52.858Z,98630.91
2023-06-05T15:00:20.624Z,98632.50
2023-06-05T15:02:47.573Z,98633.16
2023-06-05T15:05:15.445Z,98629.22
2023-06-05T15:07:44.091Z,98621.06
2023-06-05T15:10:14.058Z,98623.47
2023-06-05T15:12:41.502Z,98622.88
2023-06-05T15:17:39.982Z,98618.56
2023-06-05T15:20:07.493Z,98616.56
2023-06-05T15:22:34.764Z,98618.28
2023-06-05T15:25:01.686Z,98623.75
2023-06-05T15:27:28.547Z,98625.75
2023-06-05T15:29:55.538Z,98624.13
2023-06-05T15:32:22.512Z,98625.09
2023-06-05T15:34:49.504Z,98614.88
2023-06-05T15:37:16.384Z,98622.81
2023-06-05T15:39:43.806Z,98611.06
2023-06-05T15:42:10.840Z,98610.19
2023-06-05T15:44:40.870Z,98604.78
2023-06-05T15:47:08.730Z,98606.19
2023-06-05T15:49:35.888Z,98603.16
2023-06-05T15:52:02.809Z,98604.72
2023-06-05T15:54:53.448Z,98598.56
2023-06-05T15:57:18.336Z,98590.75
2023-06-05T15:59:51.338Z,98583.75
2023-06-05T16:02:18.285Z,98593.38
2023-06-05T16:04:45.627Z,98589.13
2023-06-05T16:07:12.481Z,98594.09
2023-06-05T16:09:39.394Z,98584.47
2023-06-05T16:12:06.713Z,98588.59
2023-06-05T16:14:33.518Z,98588.41
2023-06-05T16:17:02.873Z,98585.66
2023-06-05T16:19:32.408Z,98588.50
2023-06-05T16:21:59.628Z,98573.59
2023-06-05T16:24:26.454Z,98578.22
2023-06-05T16:26:54.160Z,98586.72
2023-06-05T16:29:21.504Z,98584.50
2023-06-05T16:31:49.058Z,98586.44
2023-06-05T16:34:16.378Z,98585.63
2023-06-05T16:36:43.569Z,98581.78
2023-06-05T16:39:15.813Z,98577.88
2023-06-05T16:41:46.057Z,98577.97
2023-06-05T16:44:14.251Z,98584.38
2023-06-05T16:46:44.327Z,98585.63
2023-06-05T16:49:13.419Z,98578.56
2023-06-05T16:51:40.343Z,98571.06
2023-06-05T16:54:07.996Z,98578.25
2023-06-05T16:56:35.386Z,98572.38
2023-06-05T16:59:10.705Z,98570.97
2023-06-05T17:01:37.835Z,98568.19
2023-06-05T17:04:05.464Z,98568.25
2023-06-05T17:06:33.072Z,98580.28
2023-06-05T17:09:01.111Z,98578.69
2023-06-05T17:11:28.623Z,98579.91
2023-06-05T17:13:55.906Z,98579.91
2023-06-05T17:16:22.966Z,98570.81
2023-06-05T17:18:49.899Z,98576.88
2023-06-05T17:21:17.105Z,98576.91
2023-06-05T17:23:44.250Z,98578.19
2023-06-05T17:26:11.354Z,98577.47
2023-06-05T17:28:38.355Z,98571.19
2023-06-05T17:31:06.998Z,98572.38
2023-06-05T17:33:34.140Z,98579.53
2023-06-05T17:36:01.120Z,98574.44
2023-06-05T17:38:28.442Z,98583.22
2023-06-05T17:40:55.252Z,98580.03
2023-06-05T17:43:22.121Z,98581.22
2023-06-05T17:45:49.024Z,98588.78
2023-06-05T17:48:16.001Z,98584.09
2023-06-05T17:50:44.050Z,98578.63
2023-06-05T17:53:12.207Z,98575.06
2023-06-05T17:55:41.548Z,98586.97
2023-06-05T17:58:08.508Z,98589.78
2023-06-05T18:00:37.453Z,98583.91
2023-06-05T18:03:04.776Z,98587.06
2023-06-05T18:05:31.963Z,98582.72
2023-06-05T18:07:58.984Z,98581.94
2023-06-05T18:10:25.973Z,98581.97
2023-06-05T18:12:53.122Z,98580.78
2023-06-05T18:15:20.508Z,98587.94
2023-06-05T18:17:49.994Z,98587.59
2023-06-05T18:20:17.678Z,98588.44
2023-06-05T18:22:44.480Z,98586.88
2023-06-05T18:25:14.385Z,98586.91
2023-06-05T18:27:41.287Z,98584.91
2023-06-05T18:30:13.725Z,98586.50
2023-06-05T18:32:40.666Z,98583.78
2023-06-05T18:35:08.889Z,98583.81
2023-06-05T18:37:36.044Z,98576.31
2023-06-05T18:40:02.897Z,98570.00
2023-06-05T18:42:29.676Z,98582.66
2023-06-05T18:44:59.614Z,98577.91
2023-06-05T18:47:27.563Z,98574.38
2023-06-05T18:49:54.420Z,98579.13
2023-06-05T18:52:21.354Z,98572.81
2023-06-05T18:54:48.741Z,98574.41
2023-06-05T18:57:17.377Z,98580.34
2023-06-05T18:59:44.182Z,98575.63
2023-06-05T19:02:11.494Z,98572.88
2023-06-05T19:04:39.965Z,98578.03
2023-06-05T19:07:06.950Z,98573.63
2023-06-05T19:09:33.863Z,98577.56
2023-06-05T19:12:00.925Z,98583.84
2023-06-05T19:14:27.931Z,98586.50
2023-06-05T19:16:54.747Z,98590.78
2023-06-05T19:19:24.281Z,98595.47
2023-06-05T19:21:51.157Z,98598.53
2023-06-05T19:24:18.424Z,98608.16
2023-06-05T19:26:54.347Z,98601.75
2023-06-05T19:29:21.218Z,98605.34
2023-06-05T19:31:48.183Z,98607.50
2023-06-05T19:34:15.282Z,98610.16
2023-06-05T19:36:42.359Z,98614.81
2023-06-05T19:39:09.312Z,98618.69
2023-06-05T19:41:36.218Z,98617.84
2023-06-05T19:44:05.399Z,98622.84
2023-06-05T19:46:37.653Z,98621.09
2023-06-05T19:49:05.117Z,98620.19
2023-06-05T19:51:31.907Z,98622.59
2023-06-05T19:54:01.517Z,98628.78
2023-06-05T19:56:28.402Z,98630.38
2023-06-05T19:58:55.362Z,98642.03
2023-06-05T20:01:22.473Z,98638.00
2023-06-05T20:03:49.445Z,98640.41
2023-06-05T20:06:17.062Z,98638.22
2023-06-05T20:08:45.159Z,98639.00
2023-06-05T20:11:12.592Z,98641.66
2023-06-05T20:13:40.338Z,98636.03
2023-06-05T20:16:08.391Z,98634.69
2023-06-05T20:18:36.677Z,98642.50
2023-06-05T20:21:04.311Z,98637.59
2023-06-05T20:23:31.277Z,98642.38
2023-06-05T20:25:59.449Z,98640.19
2023-06-05T20:28:26.791Z,98640.47
2023-06-05T20:30:53.617Z,98635.66
2023-06-05T20:33:20.535Z,98648.81
2023-06-05T20:35:48.035Z,98652.72
2023-06-05T20:38:15.214Z,98651.88
2023-06-05T20:40:43.254Z,98660.88
2023-06-05T20:43:10.178Z,98653.16
2023-06-05T20:45:42.806Z,98659.31
2023-06-05T20:48:11.373Z,98654.84
2023-06-05T20:50:39.629Z,98665.22
2023-06-05T20:53:06.479Z,98662.09
2023-06-05T20:55:34.626Z,98660.88
2023-06-05T20:58:03.705Z,98661.47
2023-06-05T21:00:32.290Z,98658.22
2023-06-05T21:02:59.299Z,98663.44
2023-06-05T21:05:27.022Z,98667.81
2023-06-05T21:07:53.874Z,98670.28
2023-06-05T21:10:20.780Z,98674.22
2023-06-05T21:12:47.635Z,98660.91
2023-06-05T21:15:15.159Z,98665.19
2023-06-05T21:17:42.760Z,98678.13
2023-06-05T21:20:11.034Z,98677.28
2023-06-05T21:22:38.152Z,98675.19
2023-06-05T21:25:05.795Z,98668.69
2023-06-05T21:27:32.717Z,98664.91
2023-06-05T21:29:59.683Z,98669.69
2023-06-05T21:32:28.126Z,98672.22
2023-06-05T21:35:00.493Z,98671.19
2023-06-05T21:37:27.398Z,98672.25
2023-06-05T21:39:54.221Z,98680.00
2023-06-05T21:42:21.034Z,98670.59
2023-06-05T21:44:48.898Z,98672.41
2023-06-05T21:47:19.533Z,98672.25
2023-06-05T21:49:46.549Z,98680.00
2023-06-05T21:52:14.035Z,98681.16
2023-06-05T21:54:43.145Z,98678.44
2023-06-05T21:57:14.824Z,98676.94
2023-06-05T21:59:41.651Z,98674.28
2023-06-05T22:02:09.060Z,98675.44
2023-06-05T22:04:36.359Z,98686.69
2023-06-05T22:07:03.641Z,98683.31
2023-06-05T22:09:30.978Z,98678.28
2023-06-05T22:11:59.138Z,98682.88
2023-06-05T22:14:26.310Z,98687.84
2023-06-05T22:16:54.023Z,98680.91
2023-06-05T22:19:21.213Z,98677.56
2023-06-05T22:21:49.542Z,98679.06
2023-06-05T22:24:18.307Z,98686.69
2023-06-05T22:26:46.547Z,98694.31
2023-06-05T22:29:14.671Z,98693.94
2023-06-05T22:31:41.758Z,98691.94
2023-06-05T22:34:09.029Z,98690.56
2023-06-05T22:36:35.988Z,98697.03
2023-06-05T22:39:02.876Z,98694.63
2023-06-05T22:41:31.285Z,98691.00
2023-06-05T22:43:58.146Z,98695.44
2023-06-05T22:46:25.151Z,98702.09
2023-06-05T22:48:55.117Z,98700.13
2023-06-05T22:51:25.100Z,98706.31
2023-06-05T22:53:52.856Z,98707.47
2023-06-05T22:56:20.031Z,98708.50
2023-06-05T22:58:48.494Z,98716.84
2023-06-05T23:01:18.321Z,98717.09
2023-06-05T23:03:46.552Z,98716.69
2023-06-05T23:06:16.261Z,98717.00
2023-06-05T23:08:43.171Z,98724.75
2023-06-05T23:11:10.096Z,98719.16
2023-06-05T23:13:37.087Z,98733.47
2023-06-05T23:16:05.875Z,98738.06
2023-06-05T23:18:32.715Z,98732.91
2023-06-05T23:20:59.550Z,98732.75
2023-06-05T23:23:26.380Z,98726.91
2023-06-05T23:25:54.282Z,98736.44
2023-06-05T23:28:21.411Z,98738.59
2023-06-05T23:30:48.307Z,98732.34
2023-06-05T23:33:15.405Z,98733.72
2023-06-05T23:35:42.284Z,98731.47
2023-06-05T23:38:09.214Z,98733.25
2023-06-05T23:40:36.166Z,98736.09
2023-06-05T23:43:03.058Z,98723.22
2023-06-05T23:45:31.792Z,98725.16
2023-06-05T23:48:00.086Z,98723.34
2023-06-05T23:50:27.767Z,98726.00
2023-06-05T23:52:56.478Z,98723.28
2023-06-05T23:55:24.364Z,98729.47
2023-06-05T23:57:52.985Z,98725.72
